עמוד ראשי
METAR-TAF:

METAR-TAF

שדות תעופה :

אבאדאן, איראן

קו רוחב: 30-22N, קו אורך: 048-15E, גובה: 3מטר

תצפית מזג אוויר נוכחית

הדו"ח נערך לפני 30דקות, בשעה 05:00 UTC
רוח 6קשר מכיוון צפון-מערב
טמפרטורת 36 צלסיוס
לחות 24%
לחץ 997 hPa
ראות 10 קילומטר או יותר
ללא עננים שבסיסם נמוך מ 5000 רגל או קומולונימבוס

METAR: OIAA 200500Z 32006KT CAVOK 36/12 Q0997

זמן: 10:00 (05:30 UTC)

תחזית

הדו"ח נערך לפני 6 שעות ו 20דקות, בשעה 23:10 UTC
תחזית בתוקף מ 20 ב 00 UTC עד 21 ב 06 UTC
רוח 10קשר מכיוון צפון/צפון-מערב
ראות: 8000מטר
זמנית מ -
20 ב 03 UTC עד 20 ב 06 UTC
רוח 10קשר מכיוון דרום
זמנית מ -
20 ב 12 UTC עד 20 ב 15 UTC
רוח 18קשר מכיוון צפון/צפון-מערב
זמנית מ -
20 ב 21 UTC עד 21 ב 06 UTC
רוח 18קשר מכיוון צפון-מערב

TAF: OIAA 192310Z 2000/2106 34010KT 8000 NSC TEMPO 2003/2006 18010KT TEMPO 2012/2015 34018KT TEMPO 2021/2106 32018KT

תצפיות ותחזיות מזג אוויר לגבי יותר מ- 4,000 שדות תעופה ברחבי העולם. דוחות METAR ו- TAF.

התחנות הזמינות מסומנות בנקודות צהובות ואדומות על גבי המפה.

העבר את העכבר לנקודה הצבעונית על מנת לראות את שם התחנה.

לאחר מכן, לחץ כדי לראות את תוכן ואת תחזיות מזג האוויר.

כדי לשנות את המפה: לחץ על הכפתורים הירוקים עם הפלוס השחור כדי להתקרב; על הכפתור הירוק עם המקף כדי להתרחק; או בחיצים הירוקים למפות סמוכות.


METAR-TAF: